createdAt,value
2022-12-05T00:01:24.319Z,-0.79
2022-12-05T00:03:54.173Z,-0.72
2022-12-05T00:06:22.664Z,-0.28
2022-12-05T00:08:51.293Z,-0.51
2022-12-05T00:11:21.001Z,-0.45
2022-12-05T00:13:51.131Z,-0.38
2022-12-05T00:16:21.090Z,-0.65
2022-12-05T00:18:49.642Z,-0.47
2022-12-05T00:21:18.888Z,-0.62
2022-12-05T00:23:47.188Z,-0.57
2022-12-05T00:26:15.467Z,-0.70
2022-12-05T00:28:43.459Z,-0.86
2022-12-05T00:31:14.016Z,-0.85
2022-12-05T00:33:41.912Z,-0.95
2022-12-05T00:36:12.141Z,-1.05
2022-12-05T00:38:40.224Z,-0.90
2022-12-05T00:41:09.724Z,-1.04
2022-12-05T00:43:38.051Z,-1.01
2022-12-05T00:46:07.394Z,-1.07
2022-12-05T00:48:36.859Z,-0.97
2022-12-05T00:51:06.435Z,-0.98
2022-12-05T00:53:34.498Z,-1.06
2022-12-05T00:56:03.670Z,-1.23
2022-12-05T00:58:32.199Z,-1.30
2022-12-05T01:01:07.350Z,-1.28
2022-12-05T01:03:36.856Z,-1.22
2022-12-05T01:06:06.006Z,-1.30
2022-12-05T01:08:34.445Z,-1.23
2022-12-05T01:11:02.778Z,-1.36
2022-12-05T01:13:31.115Z,-1.43
2022-12-05T01:15:59.060Z,-1.43
2022-12-05T01:18:27.469Z,-1.51
2022-12-05T01:20:56.867Z,-1.53
2022-12-05T01:23:25.244Z,-1.60
2022-12-05T01:25:54.060Z,-1.49
2022-12-05T01:28:21.992Z,-1.33
2022-12-05T01:30:51.085Z,-1.37
2022-12-05T01:33:19.189Z,-1.42
2022-12-05T01:35:47.179Z,-1.39
2022-12-05T01:38:16.491Z,-1.46
2022-12-05T01:40:44.402Z,-1.45
2022-12-05T01:43:16.008Z,-1.45
2022-12-05T01:45:46.160Z,-1.52
2022-12-05T01:48:17.963Z,-1.36
2022-12-05T01:50:46.017Z,-1.47
2022-12-05T01:53:13.954Z,-1.43
2022-12-05T01:55:43.443Z,-1.51
2022-12-05T01:58:11.765Z,-1.47
2022-12-05T02:00:41.185Z,-1.66
2022-12-05T02:03:12.151Z,-1.63
2022-12-05T02:05:40.284Z,-1.69
2022-12-05T02:08:09.664Z,-1.75
2022-12-05T02:10:43.949Z,-1.81
2022-12-05T02:13:21.643Z,-1.83
2022-12-05T02:15:57.071Z,-1.71
2022-12-05T02:18:36.097Z,-1.50
2022-12-05T02:21:15.403Z,-1.66
2022-12-05T02:24:09.027Z,-1.75
2022-12-05T02:26:51.565Z,-1.78
2022-12-05T02:29:47.304Z,-1.80
2022-12-05T02:32:19.544Z,-1.84
2022-12-05T02:34:56.140Z,-1.65
2022-12-05T02:37:28.569Z,-1.79
2022-12-05T02:40:02.037Z,-1.68
2022-12-05T02:42:33.364Z,-1.92
2022-12-05T02:45:07.282Z,-1.90
2022-12-05T02:47:39.079Z,-1.79
2022-12-05T02:50:08.980Z,-1.86
2022-12-05T02:52:37.328Z,-1.80
2022-12-05T02:55:06.595Z,-1.80
2022-12-05T02:57:35.659Z,-1.78
2022-12-05T03:00:05.558Z,-1.86
2022-12-05T03:02:35.901Z,-1.98
2022-12-05T03:05:13.900Z,-1.99
2022-12-05T03:07:41.979Z,-1.98
2022-12-05T03:10:10.962Z,-2.00
2022-12-05T03:12:42.359Z,-1.98
2022-12-05T03:15:16.939Z,-2.07
2022-12-05T03:17:49.371Z,-2.18
2022-12-05T03:20:22.461Z,-2.20
2022-12-05T03:22:55.472Z,-2.21
2022-12-05T03:25:25.781Z,-2.22
2022-12-05T03:27:56.301Z,-2.29
2022-12-05T03:30:25.727Z,-2.12
2022-12-05T03:32:56.953Z,-2.00
2022-12-05T03:35:26.469Z,-1.96
2022-12-05T03:37:56.055Z,-2.00
2022-12-05T03:40:28.920Z,-1.97
2022-12-05T03:43:00.273Z,-1.86
2022-12-05T03:45:35.728Z,-1.85
2022-12-05T03:48:12.226Z,-1.84
2022-12-05T03:50:42.927Z,-2.06
2022-12-05T03:53:21.029Z,-2.10
2022-12-05T03:55:55.147Z,-2.29
2022-12-05T03:58:28.071Z,-2.36
2022-12-05T04:00:58.864Z,-2.33
2022-12-05T04:03:39.135Z,-2.20
2022-12-05T04:06:13.160Z,-2.23
2022-12-05T04:08:44.463Z,-2.10
2022-12-05T04:11:17.649Z,-2.18
2022-12-05T04:13:47.808Z,-2.36
2022-12-05T04:16:38.561Z,-2.44
2022-12-05T04:19:11.030Z,-2.55
2022-12-05T04:21:40.887Z,-2.61
2022-12-05T04:24:29.232Z,-2.50
2022-12-05T04:27:07.714Z,-2.36
2022-12-05T04:29:39.209Z,-2.34
2022-12-05T04:32:10.506Z,-2.45
2022-12-05T04:34:39.286Z,-2.38
2022-12-05T04:37:12.263Z,-2.20
2022-12-05T04:39:44.320Z,-2.37
2022-12-05T04:42:14.532Z,-2.35
2022-12-05T04:44:45.874Z,-2.52
2022-12-05T04:47:16.248Z,-2.54
2022-12-05T04:49:48.009Z,-2.56
2022-12-05T04:52:20.286Z,-2.67
2022-12-05T04:54:50.368Z,-2.79
2022-12-05T04:57:22.154Z,-2.74
2022-12-05T04:59:50.987Z,-2.67
2022-12-05T05:02:23.088Z,-2.59
2022-12-05T05:04:52.822Z,-2.61
2022-12-05T05:07:22.068Z,-2.62
2022-12-05T05:09:50.047Z,-2.59
2022-12-05T05:12:19.298Z,-2.68
2022-12-05T05:14:47.490Z,-2.78
2022-12-05T05:17:15.479Z,-2.73
2022-12-05T05:19:44.770Z,-2.83
2022-12-05T05:22:12.640Z,-2.90
2022-12-05T05:24:40.506Z,-2.90
2022-12-05T05:27:08.423Z,-2.88
2022-12-05T05:29:36.275Z,-2.84
2022-12-05T05:32:04.192Z,-2.82
2022-12-05T05:34:32.069Z,-2.72
2022-12-05T05:37:01.324Z,-2.77
2022-12-05T05:39:29.808Z,-2.72
2022-12-05T05:41:57.700Z,-2.69
2022-12-05T05:44:25.614Z,-2.85
2022-12-05T05:46:54.576Z,-2.78
2022-12-05T05:49:22.568Z,-2.75
2022-12-05T05:51:50.433Z,-2.65
2022-12-05T05:54:19.685Z,-2.65
2022-12-05T05:56:47.620Z,-2.67
2022-12-05T05:59:15.467Z,-2.36
2022-12-05T06:01:43.351Z,-2.63
2022-12-05T06:04:11.328Z,-2.63
2022-12-05T06:06:39.268Z,-2.63
2022-12-05T06:09:07.840Z,-2.59
2022-12-05T06:11:37.179Z,-2.55
2022-12-05T06:14:05.048Z,-2.55
2022-12-05T06:16:33.162Z,-2.16
2022-12-05T06:19:01.139Z,-2.36
2022-12-05T06:21:29.320Z,-2.34
2022-12-05T06:23:57.262Z,-2.26
2022-12-05T06:26:25.183Z,-2.29
2022-12-05T06:28:54.756Z,-2.26
2022-12-05T06:31:27.245Z,-2.19
2022-12-05T06:33:55.674Z,-2.18
2022-12-05T06:36:24.156Z,-2.20
2022-12-05T06:38:52.164Z,-2.12
2022-12-05T06:41:21.400Z,-2.02
2022-12-05T06:43:49.330Z,-2.08
2022-12-05T06:46:18.706Z,-2.04
2022-12-05T06:48:46.756Z,-1.97
2022-12-05T06:51:16.579Z,-1.74
2022-12-05T06:53:44.770Z,-1.81
2022-12-05T06:56:14.752Z,-1.96
2022-12-05T06:58:42.736Z,-1.73
2022-12-05T07:01:30.891Z,-1.64
2022-12-05T07:04:00.464Z,-1.78
2022-12-05T07:06:28.923Z,-1.89
2022-12-05T07:08:56.889Z,-1.87
2022-12-05T07:11:25.062Z,-1.72
2022-12-05T07:13:53.070Z,-1.72
2022-12-05T07:16:21.058Z,-1.58
2022-12-05T07:18:49.035Z,-1.25
2022-12-05T07:21:24.846Z,-1.20
2022-12-05T07:23:52.984Z,-1.11
2022-12-05T07:26:22.887Z,-1.11
2022-12-05T07:28:51.856Z,-1.03
2022-12-05T07:31:22.070Z,-0.97
2022-12-05T07:33:50.498Z,-0.85
2022-12-05T07:36:21.817Z,-0.64
2022-12-05T07:38:49.824Z,-0.38
2022-12-05T07:41:21.461Z,-0.14
2022-12-05T07:43:49.468Z,0.09
2022-12-05T07:46:17.610Z,0.24
2022-12-05T07:48:45.724Z,0.24
2022-12-05T07:51:13.707Z,0.26
2022-12-05T07:53:44.373Z,0.38
2022-12-05T07:56:14.310Z,0.40
2022-12-05T07:58:42.260Z,0.32
2022-12-05T08:01:11.484Z,0.29
2022-12-05T08:03:39.611Z,0.25
2022-12-05T08:06:10.007Z,0.20
2022-12-05T08:08:38.000Z,0.29
2022-12-05T08:11:08.503Z,0.49
2022-12-05T08:13:36.678Z,0.46
2022-12-05T08:16:05.673Z,0.65
2022-12-05T08:18:34.286Z,0.72
2022-12-05T08:21:03.405Z,0.89
2022-12-05T08:23:31.936Z,0.81
2022-12-05T08:26:03.409Z,0.77
2022-12-05T08:28:33.268Z,0.84
2022-12-05T08:31:05.604Z,0.86
2022-12-05T08:33:33.726Z,0.70
2022-12-05T08:36:03.557Z,0.75
2022-12-05T08:38:31.750Z,0.58
2022-12-05T08:41:02.378Z,0.71
2022-12-05T08:43:32.469Z,0.70
2022-12-05T08:46:01.146Z,0.69
2022-12-05T08:48:30.752Z,0.93
2022-12-05T08:50:59.002Z,1.02
2022-12-05T08:53:26.978Z,1.08
2022-12-05T08:55:54.847Z,1.14
2022-12-05T08:58:22.814Z,1.14
2022-12-05T09:00:52.134Z,1.21
2022-12-05T09:03:20.086Z,1.42
2022-12-05T09:05:49.493Z,1.58
2022-12-05T09:08:21.833Z,1.48
2022-12-05T09:10:49.746Z,1.62
2022-12-05T09:13:17.931Z,1.56
2022-12-05T09:15:45.843Z,1.45
2022-12-05T09:18:15.318Z,1.45
2022-12-05T09:20:43.271Z,1.58
2022-12-05T09:23:15.836Z,1.68
2022-12-05T09:25:50.550Z,1.61
2022-12-05T09:28:18.528Z,1.56
2022-12-05T09:30:46.473Z,1.57
2022-12-05T09:33:15.772Z,1.51
2022-12-05T09:35:43.720Z,1.39
2022-12-05T09:38:11.638Z,1.56
2022-12-05T09:40:43.787Z,1.48
2022-12-05T09:43:18.316Z,1.63
2022-12-05T09:45:53.506Z,1.71
2022-12-05T09:48:23.923Z,1.89
2022-12-05T09:50:55.708Z,1.91
2022-12-05T09:53:28.412Z,1.81
2022-12-05T09:55:58.881Z,1.72
2022-12-05T09:58:30.241Z,1.53
2022-12-05T10:01:03.588Z,1.82
2022-12-05T10:03:40.535Z,1.80
2022-12-05T10:06:14.414Z,2.06
2022-12-05T10:08:59.795Z,2.18
2022-12-05T10:11:36.147Z,2.28
2022-12-05T10:14:10.900Z,2.36
2022-12-05T10:16:42.429Z,2.23
2022-12-05T10:19:16.012Z,2.27
2022-12-05T10:21:50.784Z,2.09
2022-12-05T10:24:29.900Z,2.12
2022-12-05T10:27:00.541Z,2.14
2022-12-05T10:29:31.137Z,2.25
2022-12-05T10:32:08.840Z,1.87
2022-12-05T10:34:40.114Z,1.88
2022-12-05T10:37:12.890Z,2.04
2022-12-05T10:39:41.494Z,2.18
2022-12-05T10:42:14.047Z,2.18
2022-12-05T10:44:42.085Z,2.20
2022-12-05T10:47:10.535Z,2.12
2022-12-05T10:49:40.180Z,1.93
2022-12-05T10:52:08.180Z,1.92
2022-12-05T10:54:42.827Z,1.86
2022-12-05T10:57:23.274Z,1.91
2022-12-05T10:59:51.382Z,2.07
2022-12-05T11:02:23.641Z,2.39
2022-12-05T11:04:53.242Z,2.51
2022-12-05T11:07:28.842Z,2.63
2022-12-05T11:09:56.989Z,2.70
2022-12-05T11:12:26.004Z,2.77
2022-12-05T11:15:05.402Z,2.92
2022-12-05T11:17:36.412Z,2.84
2022-12-05T11:20:38.549Z,2.88
2022-12-05T11:23:28.812Z,2.91
2022-12-05T11:25:57.811Z,2.81
2022-12-05T11:28:32.163Z,2.87
2022-12-05T11:31:02.759Z,2.90
2022-12-05T11:33:32.113Z,2.79
2022-12-05T11:36:05.865Z,2.79
2022-12-05T11:38:34.777Z,2.75
2022-12-05T11:41:14.779Z,2.49
2022-12-05T11:43:55.123Z,2.83
2022-12-05T11:46:31.037Z,2.93
2022-12-05T11:49:14.165Z,3.27
2022-12-05T11:51:48.599Z,3.21
2022-12-05T11:55:04.571Z,3.27
2022-12-05T11:57:43.273Z,3.33
2022-12-05T12:00:24.434Z,3.29
2022-12-05T12:03:33.406Z,3.28
2022-12-05T12:06:09.271Z,3.42
2022-12-05T12:08:44.032Z,3.43
2022-12-05T12:11:15.430Z,3.59
2022-12-05T12:13:54.031Z,3.77
2022-12-05T12:16:27.878Z,3.89
2022-12-05T12:19:20.804Z,3.84
2022-12-05T12:22:02.159Z,3.66
2022-12-05T12:24:39.156Z,3.48
2022-12-05T12:27:14.895Z,3.36
2022-12-05T12:29:52.251Z,3.28
2022-12-05T12:32:28.182Z,3.33
2022-12-05T12:35:19.170Z,3.07
2022-12-05T12:37:54.512Z,3.18
2022-12-05T12:40:30.999Z,3.21
2022-12-05T12:43:06.780Z,3.22
2022-12-05T12:45:48.059Z,3.31
2022-12-05T12:48:45.790Z,3.28
2022-12-05T12:51:15.421Z,3.23
2022-12-05T12:54:13.241Z,3.17
2022-12-05T12:56:54.301Z,3.08
2022-12-05T12:59:37.269Z,3.17
2022-12-05T13:02:12.992Z,2.72
2022-12-05T13:04:49.512Z,2.86
2022-12-05T13:07:20.291Z,2.86
2022-12-05T13:09:51.974Z,2.75
2022-12-05T13:12:24.411Z,2.81
2022-12-05T13:14:55.744Z,2.76
2022-12-05T13:17:24.503Z,2.75
2022-12-05T13:19:53.301Z,2.65
2022-12-05T13:22:22.895Z,2.63
2022-12-05T13:24:51.652Z,2.64
2022-12-05T13:27:22.767Z,2.57
2022-12-05T13:29:54.313Z,2.52
2022-12-05T13:32:28.613Z,2.53
2022-12-05T13:34:57.353Z,2.49
2022-12-05T13:37:44.426Z,2.43
2022-12-05T13:40:47.494Z,2.42
2022-12-05T13:43:19.352Z,2.54
2022-12-05T13:46:01.166Z,2.51
2022-12-05T13:48:30.031Z,2.54
2022-12-05T13:51:01.321Z,2.60
2022-12-05T13:53:38.825Z,2.70
2022-12-05T13:56:09.920Z,2.65
2022-12-05T13:58:48.159Z,2.65
2022-12-05T14:01:55.655Z,2.63
2022-12-05T14:04:50.211Z,2.59
2022-12-05T14:07:41.355Z,2.56
2022-12-05T14:10:11.286Z,2.57
2022-12-05T14:12:51.441Z,2.54
2022-12-05T14:15:34.952Z,2.61
2022-12-05T14:18:06.435Z,2.51
2022-12-05T14:20:47.725Z,2.60
2022-12-05T14:23:29.328Z,2.69
2022-12-05T14:26:09.139Z,2.80
2022-12-05T14:28:45.686Z,2.95
2022-12-05T14:31:26.535Z,2.95
2022-12-05T14:34:07.034Z,2.92
2022-12-05T14:36:34.985Z,2.84
2022-12-05T14:39:02.935Z,2.98
2022-12-05T14:41:34.783Z,2.82
2022-12-05T14:44:08.403Z,2.74
2022-12-05T14:46:38.005Z,2.89
2022-12-05T14:49:50.597Z,2.79
2022-12-05T14:52:21.263Z,2.67
2022-12-05T14:54:49.350Z,2.85
2022-12-05T14:57:17.679Z,2.73
2022-12-05T14:59:49.682Z,2.72
2022-12-05T15:02:24.264Z,2.76
2022-12-05T15:04:54.317Z,2.75
2022-12-05T15:07:24.130Z,2.86
2022-12-05T15:09:57.795Z,2.70
2022-12-05T15:12:28.136Z,2.61
2022-12-05T15:15:08.698Z,2.59
2022-12-05T15:17:46.080Z,2.52
2022-12-05T15:20:19.185Z,2.52
2022-12-05T15:22:47.121Z,2.54
2022-12-05T15:25:30.880Z,2.52
2022-12-05T15:28:02.007Z,2.39
2022-12-05T15:30:30.826Z,2.39
2022-12-05T15:33:00.720Z,2.41
2022-12-05T15:35:30.332Z,2.39
2022-12-05T15:38:00.719Z,2.52
2022-12-05T15:40:37.297Z,2.40
2022-12-05T15:43:25.247Z,2.50
2022-12-05T15:46:08.228Z,2.46
2022-12-05T15:48:37.532Z,2.46
2022-12-05T15:51:05.915Z,2.50
2022-12-05T15:53:36.284Z,2.37
2022-12-05T15:56:07.086Z,2.49
2022-12-05T15:58:37.023Z,2.49
2022-12-05T16:01:11.215Z,2.57
2022-12-05T16:03:42.340Z,2.50
2022-12-05T16:06:14.109Z,2.51
2022-12-05T16:08:45.410Z,2.72
2022-12-05T16:11:14.360Z,2.68
2022-12-05T16:13:44.245Z,2.58
2022-12-05T16:16:17.652Z,2.70
2022-12-05T16:18:52.056Z,2.71
2022-12-05T16:21:37.338Z,2.69
2022-12-05T16:24:09.103Z,2.62
2022-12-05T16:26:39.700Z,2.69
2022-12-05T16:29:09.436Z,2.86
2022-12-05T16:31:39.043Z,2.76
2022-12-05T16:34:16.418Z,2.65
2022-12-05T16:36:48.010Z,2.77
2022-12-05T16:39:19.556Z,2.60
2022-12-05T16:41:48.643Z,2.69
2022-12-05T16:44:57.665Z,2.67
2022-12-05T16:47:27.004Z,2.58
2022-12-05T16:49:56.327Z,2.62
2022-12-05T16:52:31.977Z,2.50
2022-12-05T16:55:00.217Z,2.42
2022-12-05T16:57:28.332Z,2.39
2022-12-05T16:59:56.220Z,2.50
2022-12-05T17:02:24.158Z,2.44
2022-12-05T17:04:53.722Z,2.49
2022-12-05T17:07:22.971Z,2.44
2022-12-05T17:09:50.888Z,2.43
2022-12-05T17:12:22.899Z,2.30
2022-12-05T17:14:50.832Z,2.42
2022-12-05T17:17:19.059Z,2.39
2022-12-05T17:19:47.069Z,2.33
2022-12-05T17:22:16.149Z,2.41
2022-12-05T17:24:45.547Z,2.34
2022-12-05T17:27:13.809Z,2.51
2022-12-05T17:29:41.763Z,2.34
2022-12-05T17:32:11.215Z,2.42
2022-12-05T17:34:39.213Z,2.48
2022-12-05T17:37:07.103Z,2.37
2022-12-05T17:39:34.974Z,2.39
2022-12-05T17:42:04.283Z,2.42
2022-12-05T17:44:32.214Z,2.36
2022-12-05T17:47:06.087Z,2.37
2022-12-05T17:49:35.798Z,2.31
2022-12-05T17:54:51.936Z,2.32
2022-12-05T17:57:21.198Z,2.23
2022-12-05T17:59:49.096Z,2.15
2022-12-05T18:02:17.497Z,2.14
2022-12-05T18:04:45.496Z,2.50
2022-12-05T18:07:13.479Z,2.39
2022-12-05T18:09:41.364Z,2.27
2022-12-05T18:12:09.276Z,2.23
2022-12-05T18:14:39.550Z,2.41
2022-12-05T18:17:07.463Z,2.41
2022-12-05T18:19:35.408Z,2.53
2022-12-05T18:22:03.861Z,2.49
2022-12-05T18:24:31.740Z,2.72
2022-12-05T18:26:59.726Z,2.57
2022-12-05T18:29:27.672Z,2.57
2022-12-05T18:31:56.984Z,2.49
2022-12-05T18:34:25.181Z,2.40
2022-12-05T18:36:53.109Z,2.74
2022-12-05T18:39:20.984Z,2.64
2022-12-05T18:41:49.024Z,2.62
2022-12-05T18:44:16.940Z,2.60
2022-12-05T18:46:44.875Z,2.57
2022-12-05T18:49:14.455Z,2.56
2022-12-05T18:51:42.413Z,2.80
2022-12-05T18:54:10.383Z,2.68
2022-12-05T18:56:40.119Z,2.65
2022-12-05T18:59:09.913Z,2.66
2022-12-05T19:01:41.863Z,2.66
2022-12-05T19:04:12.432Z,2.57
2022-12-05T19:06:43.270Z,2.43
2022-12-05T19:09:15.384Z,2.57
2022-12-05T19:11:47.612Z,2.51
2022-12-05T19:14:16.611Z,2.40
2022-12-05T19:16:44.606Z,2.41
2022-12-05T19:19:15.232Z,2.53
2022-12-05T19:21:44.889Z,2.45
2022-12-05T19:24:13.934Z,2.28
2022-12-05T19:26:42.082Z,2.24
2022-12-05T19:29:11.680Z,2.20
2022-12-05T19:31:39.788Z,2.16
2022-12-05T19:34:08.788Z,2.04
2022-12-05T19:36:38.095Z,2.14
2022-12-05T19:39:10.702Z,2.09
2022-12-05T19:41:38.848Z,2.06
2022-12-05T19:44:07.164Z,2.11
2022-12-05T19:46:35.525Z,2.21
2022-12-05T19:49:05.517Z,2.19
2022-12-05T19:51:33.907Z,2.21
2022-12-05T19:54:03.467Z,2.21
2022-12-05T19:56:33.662Z,2.18
2022-12-05T19:59:01.728Z,2.11
2022-12-05T20:01:31.455Z,2.19
2022-12-05T20:04:01.070Z,2.45
2022-12-05T20:06:32.668Z,2.44
2022-12-05T20:09:01.494Z,2.61
2022-12-05T20:11:30.111Z,2.38
2022-12-05T20:14:00.532Z,2.32
2022-12-05T20:16:29.682Z,2.50
2022-12-05T20:18:59.392Z,2.42
2022-12-05T20:21:28.653Z,2.27
2022-12-05T20:23:56.968Z,2.16
2022-12-05T20:26:26.483Z,2.12
2022-12-05T20:28:56.384Z,2.08
2022-12-05T20:31:27.591Z,2.18
2022-12-05T20:33:55.775Z,2.18
2022-12-05T20:36:25.176Z,2.37
2022-12-05T20:38:56.344Z,2.42
2022-12-05T20:41:24.275Z,2.47
2022-12-05T20:43:55.216Z,2.26
2022-12-05T20:46:23.329Z,1.97
2022-12-05T20:48:53.291Z,1.93
2022-12-05T20:51:22.356Z,1.77
2022-12-05T20:53:50.829Z,1.78
2022-12-05T20:56:20.143Z,1.73
2022-12-05T20:58:49.461Z,1.62
2022-12-05T21:01:18.481Z,1.62
2022-12-05T21:03:48.168Z,1.80
2022-12-05T21:06:19.658Z,2.07
2022-12-05T21:08:47.564Z,2.11
2022-12-05T21:11:15.846Z,2.01
2022-12-05T21:13:43.821Z,1.83
2022-12-05T21:16:13.605Z,1.86
2022-12-05T21:18:41.963Z,1.96
2022-12-05T21:21:13.397Z,1.83
2022-12-05T21:23:43.154Z,1.81
2022-12-05T21:26:13.947Z,1.93
2022-12-05T21:28:42.614Z,1.95
2022-12-05T21:31:12.527Z,1.95
2022-12-05T21:33:40.776Z,2.02
2022-12-05T21:36:10.036Z,1.80
2022-12-05T21:38:38.005Z,1.57
2022-12-05T21:41:07.771Z,1.51
2022-12-05T21:43:37.426Z,1.41
2022-12-05T21:46:06.695Z,1.44
2022-12-05T21:48:35.374Z,1.38
2022-12-05T21:51:06.525Z,1.25
2022-12-05T21:53:34.945Z,1.12
2022-12-05T21:56:04.235Z,1.04
2022-12-05T21:58:35.913Z,1.31
2022-12-05T22:01:07.507Z,1.34
2022-12-05T22:03:36.434Z,1.23
2022-12-05T22:06:05.960Z,1.26
2022-12-05T22:08:34.430Z,1.28
2022-12-05T22:11:06.749Z,1.26
2022-12-05T22:13:36.031Z,1.22
2022-12-05T22:16:05.057Z,1.12
2022-12-05T22:18:33.640Z,1.28
2022-12-05T22:21:03.653Z,1.27
2022-12-05T22:23:31.815Z,1.14
2022-12-05T22:26:00.410Z,1.00
2022-12-05T22:28:28.472Z,0.99
2022-12-05T22:30:59.309Z,0.98
2022-12-05T22:33:28.412Z,0.75
2022-12-05T22:35:57.792Z,0.72
2022-12-05T22:38:26.472Z,0.70
2022-12-05T22:40:55.295Z,0.81
2022-12-05T22:43:23.598Z,1.10
2022-12-05T22:45:51.825Z,1.18
2022-12-05T22:48:21.200Z,1.11
2022-12-05T22:50:49.343Z,1.08
2022-12-05T22:53:17.712Z,1.18
2022-12-05T22:55:45.678Z,1.07
2022-12-05T22:58:13.612Z,0.95
2022-12-05T23:00:41.733Z,0.87
2022-12-05T23:03:09.935Z,0.99
2022-12-05T23:05:41.824Z,0.82
2022-12-05T23:08:10.306Z,0.80
2022-12-05T23:10:39.266Z,0.86
2022-12-05T23:13:07.289Z,0.69
2022-12-05T23:15:35.628Z,0.77
2022-12-05T23:18:03.545Z,0.62
2022-12-05T23:20:31.442Z,0.54
2022-12-05T23:23:00.752Z,0.50
2022-12-05T23:25:28.656Z,0.46
2022-12-05T23:27:56.521Z,0.43
2022-12-05T23:30:24.487Z,0.43
2022-12-05T23:32:52.445Z,0.42
2022-12-05T23:35:20.375Z,0.32
2022-12-05T23:37:48.731Z,0.26
2022-12-05T23:40:18.526Z,0.09
2022-12-05T23:42:46.418Z,0.18
2022-12-05T23:45:14.371Z,0.23
2022-12-05T23:47:42.252Z,0.11
2022-12-05T23:50:10.654Z,0.13
2022-12-05T23:52:39.041Z,0.23
2022-12-05T23:55:07.807Z,0.20
2022-12-05T23:57:37.037Z,0.06
